Altoona Blair County Airport Altoona US
ICAO: KAOO
IATA: AOO
Category: Medium
Scheduled Services: Yes

Elevation: 1503 ft
TransAlt. 18000 ft.

Airport Communications:
ASOS:127.125
CLEVELAND CNTR:121.2
CTAF:123.6
RDO:122.1
RDO:122.2
UNICOM:123

KAOO Zoom In..

If you have problems with the map follow the link
https://www.worldairports.se/pages/airport.php?
ICAO=KAOO

Runways:

(A) RW 03 length 5465 ft width 100 ft
---- / hdg 26

(B) RW 12 length 3668 ft width 75 ft
---- / hdg 118

(C) RW 21 length 5465 ft width 100 ft
ILS 111.10 / hdg 206

(D) RW 30 length 3668 ft width 75 ft
---- / hdg 298

Location; KAOO
Day. 21 / Time. 20.53 Zulu
* Altimeter: 30.43
* Temperature: -04° c. -24.8°f.
* Wind from: 330° Speed 11 kn.
Dewpoint: -11° c.
Visibility: 5500 m.
Clouds: Overcast 2500 ft.

KAOO 212053Z AUTO 33011KT OVC025 M04/M11 A3043 RMK AO2 SLP330 T10391106 55005 $


Wind From 330°
Speed 11 kn.

 
 
jpsmedia worldairports.se 2020   terms of use